Arcadia, WI

8:53 AM CDT en Noviembre 01, 2014 (GMT -0500)
Galesville SW | Change Station
CLOSE
Current Station
Estación meteorológica personal
Location: Galesville, WI
Altura: 769 ft
Estaciones meteorológicas cercanas

Alt 769 ft 44.07 °N, 91.39 °W | Updated 9 seconds ago

Despejado
Despejado
22.3 ° F
Sensación térmica 22 ° F
N
1.1
Viento Variable Viento desde ESE
Gusts 1.1 mph

Hoy
Alta -- | Baja -- ° F
--% Posibilidad de precipitaciones
Ayer
Alta -- | Baja -- ° F
Precip. -- pul
7:42 AM 5:55 PM
Gibosa creciente, 66% visible
Presión 30.50 pul
Visibilidad 10.0 Millas
Nubes Despejado
Vientos helados 22 ° F
Punto de rocío 17 ° F
Humedad 79%
Precipitaciones 0.00 pul
Espesor de la nieve No disponible.
UV 0 de una escala de 12
Polen .10 de una escala de 12
Calidad del aire No disponible.
Flu Activity No disponible.
METAR KONA 011334Z AUTO 00000KT 10SM CLR M04/M05 A3050 RMK AO2

More Conditions Fewer Conditions

Presión 30.50 pul
Visibilidad 10.0 Millas
Nubes Despejado
Vientos helados 22 ° F
Punto de rocío 17 ° F
Humedad 79%
Precipitaciones 0.00 pul
Espesor de la nieve No disponible.
UV 0 de una escala de 12
Polen .10 de una escala de 12
Calidad del aire No disponible.
Flu Activity No disponible.
METAR KONA 011334Z AUTO 00000KT 10SM CLR M04/M05 A3050 RMK AO2

More Conditions Fewer Conditions

10-Day Weather Forecast

Almanac

Astronomía

Nov. 01, 2014 Salida Puesta
Hora real
Crepúsculo civil
Crepúsculo náutico
Crepúsculo astronómico
Luna
Horas de luz
Horas de luz
Tomorrow will be .
, % of the Moon is Illuminated

Extremos de hoy

Máximos del estado Bajos del estado

Community

WunderPhotos

Upload Photos

1,766,937 ¡fotos cargadas!

WunderBlogs® & News

Nearby

Calidad del aire

  Calidad del aire Índice AQ Contaminante
Not available.

Grosos de nieve

Estación Profundido Altura

Actividad de terremotos

Ciudad Distance Mag. Tiempo y dato
Magnitud mínima muestra es 2,5.

Temperaturas de aguas costeras

Lugar Temperatura

Estaciones meteorológicas cercanas